Tiempo atmosférico en la estación meteorológica de Fresno de Cantiespino, Segovia (993 m.)

Fecha
DESCASC
Temp. máxima en grados centígrados (hora)
DESCASC
Temp. mínima en grados centígrados (hora)
DESCASC
Temp. media en grados centígrados
DESCASC
Racha de viento máxima en m/sg (hora)
DESCASC
Velocidad máxima media en intervalos de 10 minutos(hora)
DESCASC
Precipitaciones diarias en mm
DESCASC
Precipitaciones de 00:00 a 06:00 en mm
DESCASC
Precipitaciones de 06:00 a 12:00 en mm
DESCASC
Precipitaciones de 12:00 a 18:00 en mm
DESCASC
Precipitaciones de 18:00 a 24:00 en mm
DESCASC

Gráficas

Temp. máximas Temp. mínimas Temp. medias Precipitaciones Rachas de viento máximas Velocidades máximas media en intervalos de 10 minutos

Datos horarios

Fecha y hora oficial Temperatura (ºC) Velocidad del viento (km/h) Dirección del viento Racha (km/h) Dirección de racha Precipitación (mm) Presión (hPa) Tendencia (hPa) Humedad (%)
2017-09-20 23:00:00 11.1 11 Sudoeste 13 Sudoeste 0 -- -- 54
2017-09-20 22:00:00 13.3 10 Sudoeste 16 Sur 0 -- -- 48
2017-09-20 21:00:00 15.2 9 Sur 11 Sur 0 -- -- 45
2017-09-20 20:00:00 22.4 5 Norte 12 Sudoeste 0 -- -- 31
2017-09-20 19:00:00 24.7 5 Nordeste 18 Oeste 0 -- -- 28
2017-09-20 18:00:00 25.9 10 Oeste 19 Oeste 0 -- -- 22
2017-09-20 17:00:00 25.9 10 Sudoeste 22 Noroeste 0 -- -- 23
2017-09-20 16:00:00 25.4 14 Oeste 22 Oeste 0 -- -- 21
2017-09-20 15:00:00 24.3 8 Este 19 Oeste 0 -- -- 24
2017-09-20 14:00:00 23.1 7 Norte 17 Noroeste 0 -- -- 30
2017-09-20 13:00:00 21.6 7 Noroeste 12 Norte 0 -- -- 30
2017-09-20 12:00:00 19.5 6 Nordeste 10 Nordeste 0 -- -- 34
2017-09-20 11:00:00 15.3 5 Norte 9 Norte 0 -- -- 46
2017-09-20 10:00:00 10.1 0 Calma 3 Sudeste 0 -- -- 59
2017-09-20 09:00:00 4.6 0 Calma 7 Sudoeste 0 -- -- 81
2017-09-20 08:00:00 1.9 4 Sudoeste 8 Sudoeste 0 -- -- 82
2017-09-20 07:00:00 2.5 5 Sudoeste 9 Sur 0 -- -- 79
2017-09-20 06:00:00 3.1 8 Sudoeste 12 Sudoeste 0 -- -- 79
2017-09-20 05:00:00 3.2 3 Sudoeste 9 Sur 0 -- -- 79
2017-09-20 04:00:00 3.8 6 Sudoeste 8 Sur 0 -- -- 75
2017-09-20 03:00:00 4.8 2 Sur 12 Sudoeste 0 -- -- 71
2017-09-20 02:00:00 5.4 10 Sudoeste 13 Sudoeste 0 -- -- 70
2017-09-20 01:00:00 6.7 11 Sur 14 Sur 0 -- -- 66
2017-09-20 00:00:00 7 9 Sudoeste 13 Sur 0 -- -- 63
2017-09-19 23:00:00 7.3 10 Sudoeste 12 Sur 0 -- -- 62
2017-09-19 22:00:00 9 9 Sudoeste 11 Sudoeste 0 -- -- 58
2017-09-19 21:00:00 13.1 4 Sudoeste 10 Noroeste 0 -- -- 45
2017-09-19 20:00:00 18.6 8 Noroeste 15 Noroeste 0 -- -- 31
2017-09-19 19:00:00 20 9 Norte 18 Norte 0 -- -- 28
2017-09-19 18:00:00 20.8 12 Noroeste 22 Norte 0 -- -- 29
2017-09-19 17:00:00 20.8 12 Noroeste 24 Noroeste 0 -- -- 33
2017-09-19 16:00:00 20.5 12 Noroeste 27 Noroeste 0 -- -- 30
2017-09-19 15:00:00 19.9 15 Noroeste 27 Noroeste 0 -- -- 36
2017-09-19 14:00:00 19 12 Noroeste 26 Noroeste 0 -- -- 39
2017-09-19 13:00:00 17.8 9 Oeste 25 Oeste 0 -- -- 46
2017-09-19 12:00:00 16.1 13 Sudoeste 25 Oeste 0 -- -- 56
2017-09-19 11:00:00 14.1 14 Oeste 22 Oeste 0 -- -- 63
2017-09-19 10:00:00 11.7 11 Sudoeste 17 Sudoeste 0 -- -- 74
2017-09-19 09:00:00 6.7 0 Calma 9 Sudoeste 0 -- -- 88
2017-09-19 08:00:00 4.8 6 Sur 9 Sur 0 -- -- 94
2017-09-19 07:00:00 4.2 9 Sudoeste 10 Sudoeste 0 -- -- 94
2017-09-19 06:00:00 4.2 4 Sur 10 Sudoeste 0 -- -- 91
2017-09-19 05:00:00 5 8 Sudoeste 12 Sur 0 -- -- 91
2017-09-19 04:00:00 5.3 8 Sudoeste 12 Sur 0 -- -- 90
2017-09-19 03:00:00 6 9 Sudoeste 12 Sur 0 -- -- 88
2017-09-19 02:00:00 6.6 7 Sudoeste 13 Sur 0 -- -- 84
2017-09-19 01:00:00 8.5 5 Sudoeste 10 Sur 0 -- -- 78
2017-09-19 00:00:00 10.3 6 Sudoeste 11 Sudoeste 0 -- -- 72
2017-09-18 23:00:00 10.7 12 Sudoeste 14 Sudoeste 0 -- -- 71
2017-09-18 22:00:00 10.4 8 Sudoeste 9 Sur 0 -- -- 68
2017-09-18 21:00:00 12.3 5 Sudoeste 14 Noroeste 0 -- -- 60
2017-09-18 20:00:00 17.6 11 Noroeste 25 Oeste 0 -- -- 46
2017-09-18 19:00:00 18.3 16 Noroeste 25 Noroeste 0 -- -- 43
2017-09-18 18:00:00 18.4 14 Noroeste 28 Oeste 0 -- -- 42
2017-09-18 17:00:00 18.1 19 Oeste 31 Oeste 0 -- -- 44
2017-09-18 16:00:00 17.6 17 Oeste 29 Oeste 0 -- -- 49
2017-09-18 15:00:00 15.8 16 Oeste 27 Oeste 0 -- -- 57
2017-09-18 14:00:00 15.5 14 Oeste 27 Oeste 0 -- -- 57
2017-09-18 13:00:00 15.2 16 Oeste 27 Sudoeste 0 -- -- 56
2017-09-18 12:00:00 13.9 17 Sudoeste 29 Oeste 0 -- -- 66
2017-09-18 11:00:00 11.9 21 Sudoeste 32 Sudoeste 0 -- -- 73
2017-09-18 10:00:00 10.9 21 Sudoeste 30 Oeste 0 -- -- 79
2017-09-18 09:00:00 9 11 Sudoeste 21 Sudoeste 0 -- -- 84
2017-09-18 08:00:00 8.2 13 Sudoeste 19 Sudoeste 0 -- -- 82
2017-09-18 07:00:00 9.5 10 Sudoeste 27 Sudoeste 0.6 -- -- 73
2017-09-18 06:00:00 10 15 Sudoeste 22 Sudoeste 0 -- -- 55
2017-09-18 05:00:00 10 10 Sudoeste 15 Sudoeste 0 -- -- 52
2017-09-18 04:00:00 9.4 8 Sudoeste 14 Sudoeste 0 -- -- 52
2017-09-18 03:00:00 10.3 10 Sudoeste 14 Sudoeste 0 -- -- 48
2017-09-18 02:00:00 9.5 10 Sudoeste 16 Sudoeste 0 -- -- 49
2017-09-18 01:00:00 8.5 9 Sudoeste 14 Sur 0 -- -- 52
2017-09-18 00:00:00 8 8 Sur 12 Sur 0 -- -- 54
2017-09-17 23:00:00 8.9 10 Sur 12 Sur 0 -- -- 53
2017-09-17 22:00:00 10.6 9 Sur 12 Sur 0 -- -- 47
2017-09-17 21:00:00 12.2 3 Oeste 15 Oeste 0 -- -- 43
2017-09-17 20:00:00 17.6 10 Oeste 24 Oeste 0 -- -- 32
2017-09-17 19:00:00 18.9 18 Oeste 30 Sudoeste 0 -- -- 27
2017-09-17 18:00:00 19.6 20 Sudoeste 36 Sudoeste 0 -- -- 27
2017-09-17 17:00:00 18.5 18 Oeste 32 Oeste 0 -- -- 30
2017-09-17 16:00:00 18.5 21 Oeste 36 Oeste 0 -- -- 30
2017-09-17 15:00:00 18.4 23 Oeste 38 Sudoeste 0 -- -- 32
2017-09-17 14:00:00 17.2 18 Sudoeste 34 Oeste 0 -- -- 38
2017-09-17 13:00:00 15.9 19 Oeste 29 Sudoeste 0 -- -- 43
2017-09-17 12:00:00 14.5 18 Oeste 28 Oeste 0 -- -- 46
2017-09-17 11:00:00 12.6 17 Sudoeste 29 Sudoeste 0 -- -- 52
2017-09-17 10:00:00 10.1 17 Sudoeste 24 Sudoeste 0 -- -- 57
2017-09-17 09:00:00 7.5 9 Sudoeste 15 Sudoeste 0 -- -- 61
2017-09-17 08:00:00 4.2 7 Sudoeste 14 Sudoeste 0 -- -- 70
2017-09-17 07:00:00 4.5 8 Sudoeste 15 Oeste 0 -- -- 68
2017-09-17 06:00:00 6 8 Sudoeste 15 Sudoeste 0 -- -- 64
2017-09-17 05:00:00 5 10 Sudoeste 15 Sudoeste 0 -- -- 67
2017-09-17 04:00:00 3.9 4 Sudoeste 7 Sudoeste 0 -- -- 74
2017-09-17 03:00:00 5.2 3 Nordeste 16 Sur 0 -- -- 65
2017-09-17 02:00:00 7.7 10 Sudoeste 17 Sudoeste 0 -- -- 57
2017-09-17 01:00:00 6.6 7 Sur 12 Sudoeste 0 -- -- 63
2017-09-17 00:00:00 6.5 9 Sur 11 Sudoeste 0 -- -- 64
2017-09-16 23:00:00 6.2 9 Sur 11 Sudoeste 0 -- -- 64
2017-09-16 22:00:00 6.8 10 Sudoeste 12 Sudoeste 0 -- -- 62
2017-09-16 21:00:00 9.9 4 Oeste 9 Oeste 0 -- -- 49
2017-09-16 20:00:00 14.1 8 Noroeste 24 Noroeste 0 -- -- 38
2017-09-16 19:00:00 15.3 13 Noroeste 26 Noroeste 0 -- -- 38
2017-09-16 18:00:00 14.7 13 Noroeste 27 Oeste 0 -- -- 38
2017-09-16 17:00:00 15.1 14 Noroeste 28 Norte 0 -- -- 39
2017-09-16 16:00:00 15.1 14 Norte 31 Norte 0 -- -- 43
2017-09-16 15:00:00 14.4 13 Oeste 29 Oeste 0 -- -- 42
2017-09-16 14:00:00 13.7 13 Oeste 23 Oeste 0 -- -- 46
2017-09-16 13:00:00 13.2 9 Noroeste 17 Nordeste 0 -- -- 48
2017-09-16 12:00:00 11.7 9 Norte 20 Norte 0 -- -- 53
2017-09-16 11:00:00 10 5 Noroeste 15 Noroeste 0 -- -- 64
2017-09-16 10:00:00 7.4 6 Oeste 9 Oeste 0 -- -- 76
2017-09-16 09:00:00 3.8 4 Sudoeste 10 Sudoeste 0 -- -- 90
2017-09-16 08:00:00 0.6 6 Sudoeste 10 Sudoeste 0 -- -- 92
2017-09-16 07:00:00 0.5 7 Sur 9 Sudoeste 0 -- -- 91
2017-09-16 06:00:00 1 7 Sur 10 Sudoeste 0 -- -- 89
2017-09-16 05:00:00 1.7 6 Sudoeste 10 Sur 0 -- -- 89
2017-09-16 04:00:00 2.1 7 Sur 10 Sur 0 -- -- 88
2017-09-16 03:00:00 3.4 3 Sudoeste 5 Sudoeste 0 -- -- 83
2017-09-16 02:00:00 5.2 0 Calma 5 Nordeste 0 -- -- 77
2017-09-16 01:00:00 6.4 4 Nordeste 6 Este 0 -- -- 73
2017-09-16 00:00:00 6.7 0 Calma 8 Norte 0 -- -- 73
2017-09-15 23:00:00 8.5 5 Norte 9 Nordeste 0 -- -- 66
2017-09-15 22:00:00 10 8 Nordeste 17 Nordeste 0 -- -- 63
2017-09-15 21:00:00 11.9 10 Norte 21 Norte 0 -- -- 54
2017-09-15 20:00:00 14 16 Norte 33 Noroeste 0 -- -- 48
2017-09-15 19:00:00 15 22 Norte 37 Norte 0 -- -- 44
2017-09-15 18:00:00 16.7 22 Noroeste 37 Noroeste 0 -- -- 40
2017-09-15 17:00:00 17.1 19 Noroeste 34 Norte 0 -- -- 40
2017-09-15 16:00:00 16.4 14 Noroeste 27 Norte 0 -- -- 38
2017-09-15 15:00:00 16.4 11 Noroeste 29 Norte 0 -- -- 39
2017-09-15 14:00:00 15.7 8 Nordeste 24 Norte 0 -- -- 39
2017-09-15 13:00:00 14.3 6 Oeste 15 Norte 0 -- -- 44
2017-09-15 12:00:00 12.3 7 Norte 19 Noroeste 0 -- -- 56
2017-09-15 11:00:00 11.3 6 Norte 26 Noroeste 0 -- -- 63
2017-09-15 10:00:00 10.9 9 Norte 15 Norte 0 -- -- 70
2017-09-15 09:00:00 10 6 Nordeste 12 Nordeste 0 -- -- 69
2017-09-15 08:00:00 9.7 8 Nordeste 14 Nordeste 0 -- -- 70
2017-09-15 07:00:00 9.8 7 Este 17 Nordeste 0 -- -- 74
2017-09-15 06:00:00 9.6 12 Nordeste 24 Nordeste 0 -- -- 75
2017-09-15 05:00:00 9.9 13 Nordeste 21 Nordeste 0 -- -- 74
2017-09-15 04:00:00 11 13 Nordeste 32 Este 0 -- -- 71
2017-09-15 03:00:00 11.8 10 Este 27 Este 0 -- -- 69
2017-09-15 02:00:00 12.2 16 Este 29 Este 0 -- -- 66
2017-09-15 01:00:00 12.3 15 Este 30 Este 0 -- -- 66
2017-09-15 00:00:00 13 21 Nordeste 33 Nordeste 0 -- -- 67
2017-09-14 23:00:00 14.7 13 Nordeste 21 Nordeste 0 -- -- 64
2017-09-14 22:00:00 14.1 3 Nordeste 6 Nordeste 0 -- -- 63
2017-09-14 21:00:00 16.3 0 Calma 17 Noroeste 0 -- -- 57
2017-09-14 20:00:00 18.4 15 Norte 27 Norte 0 -- -- 52
2017-09-14 19:00:00 19.8 19 Norte 33 Noroeste 0 -- -- 51
2017-09-14 18:00:00 21.2 21 Norte 36 Norte 0 -- -- 48
2017-09-14 17:00:00 22.2 23 Norte 35 Norte 0 -- -- 47
2017-09-14 16:00:00 23.4 17 Noroeste 30 Oeste 0 -- -- 45
2017-09-14 15:00:00 22.6 17 Oeste 29 Oeste 0 -- -- 44
2017-09-14 14:00:00 21.1 14 Sudoeste 30 Oeste 0 -- -- 50
2017-09-14 13:00:00 20.3 18 Sudoeste 29 Oeste 0 -- -- 53
2017-09-14 12:00:00 19.4 13 Oeste 26 Sudoeste 0 -- -- 58
2017-09-14 11:00:00 18.2 9 Sudoeste 24 Sudoeste 0 -- -- 60
2017-09-14 10:00:00 16.7 15 Oeste 25 Sudoeste 0 -- -- 60
2017-09-14 09:00:00 14.5 13 Sudoeste 20 Sudoeste 0 -- -- 63
2017-09-14 08:00:00 12.4 10 Sudoeste 19 Sudoeste 0 -- -- 64
2017-09-14 07:00:00 13.1 10 Sudoeste 18 Sudoeste 0 -- -- 59
2017-09-14 06:00:00 14.2 12 Sudoeste 18 Sudoeste 0 -- -- 55
2017-09-14 05:00:00 13.9 11 Sudoeste 16 Sudoeste 0 -- -- 56
2017-09-14 04:00:00 15 9 Sudoeste 15 Sudoeste 0 -- -- 53
2017-09-14 03:00:00 15.2 8 Sudoeste 14 Sudoeste 0 -- -- 54
2017-09-14 02:00:00 17.1 12 Sudoeste 20 Sudoeste 0 -- -- 49
2017-09-14 01:00:00 16.9 12 Sudoeste 17 Sudoeste 0 -- -- 54
2017-09-14 00:00:00 16.1 12 Sur 23 Oeste 0 -- -- 57
2017-09-13 23:00:00 16.5 10 Sur 11 Sur 0 -- -- 56
2017-09-13 22:00:00 18.3 10 Sur 13 Sur 0 -- -- 50
2017-09-13 21:00:00 20.5 8 Sur 14 Oeste 0 -- -- 46
2017-09-13 20:00:00 26.2 9 Oeste 24 Oeste 0 -- -- 32
2017-09-13 19:00:00 27.3 16 Oeste 30 Oeste 0 -- -- 30
2017-09-13 18:00:00 27.6 18 Oeste 31 Oeste 0 -- -- 28
2017-09-13 17:00:00 27.5 20 Oeste 33 Oeste 0 -- -- 31
2017-09-13 16:00:00 26.9 17 Oeste 33 Oeste 0 -- -- 31
2017-09-13 15:00:00 26 17 Sudoeste 39 Sudoeste 0 -- -- 33
2017-09-13 14:00:00 24.8 19 Oeste 34 Oeste 0 -- -- 39
2017-09-13 13:00:00 23.5 16 Sudoeste 27 Sudoeste 0 -- -- 41
2017-09-13 12:00:00 21.7 13 Sudoeste 25 Sudoeste 0 -- -- 48
2017-09-13 11:00:00 19 6 Oeste 13 Oeste 0 -- -- 55
2017-09-13 10:00:00 16.7 5 Oeste 8 Oeste 0 -- -- 63
2017-09-13 09:00:00 11.5 4 Sudoeste 10 Sur 0 -- -- 81
2017-09-13 08:00:00 8.2 5 Sur 8 Sur 0 -- -- 85
2017-09-13 07:00:00 9.6 4 Sudoeste 7 Sur 0 -- -- 80
2017-09-13 06:00:00 10.3 0 Calma 6 Sur 0 -- -- 79
2017-09-13 05:00:00 11 7 Sur 12 Sur 0 -- -- 76
2017-09-13 04:00:00 10.1 6 Sur 8 Sur 0 -- -- 79
2017-09-13 03:00:00 11.1 0 Calma 7 Sur 0 -- -- 75
2017-09-13 02:00:00 12.2 5 Sudoeste 8 Sur 0 -- -- 70
2017-09-13 01:00:00 12.9 7 Sur 12 Sur 0 -- -- 69
2017-09-13 00:00:00 13.1 8 Sur 12 Sudoeste 0 -- -- 68
2017-09-12 23:00:00 13.7 7 Sudoeste 11 Sur 0 -- -- 65
2017-09-12 22:00:00 14.2 9 Sur 11 Sudoeste 0 -- -- 65
2017-09-12 21:00:00 17.8 9 Oeste 14 Oeste 0 -- -- 50
2017-09-12 20:00:00 21.1 12 Oeste 28 Oeste 0 -- -- 42
2017-09-12 19:00:00 21.9 15 Oeste 26 Oeste 0 -- -- 39
2017-09-12 18:00:00 22 17 Oeste 31 Oeste 0 -- -- 39
2017-09-12 17:00:00 21.9 18 Noroeste 31 Oeste 0 -- -- 39
2017-09-12 16:00:00 20.9 16 Oeste 32 Oeste 0 -- -- 41
2017-09-12 15:00:00 20 14 Noroeste 31 Noroeste 0 -- -- 43
2017-09-12 14:00:00 19.4 10 Oeste 28 Noroeste 0 -- -- 44
2017-09-12 13:00:00 18.5 14 Oeste 27 Oeste 0 -- -- 47
2017-09-12 12:00:00 16.6 9 Oeste 22 Oeste 0 -- -- 57
2017-09-12 11:00:00 15.4 12 Sudoeste 22 Sudoeste 0 -- -- 66
2017-09-12 10:00:00 13.1 13 Sudoeste 21 Oeste 0 -- -- 75
2017-09-12 09:00:00 11.3 11 Sudoeste 16 Sudoeste 0 -- -- 81
2017-09-12 08:00:00 9.9 8 Sudoeste 14 Sudoeste 0 -- -- 84
2017-09-12 07:00:00 10.4 6 Sudoeste 14 Sudoeste 0 -- -- 81
2017-09-12 06:00:00 11 6 Sudoeste 14 Sudoeste 0 -- -- 78
2017-09-12 05:00:00 11.8 7 Sudoeste 14 Sudoeste 0 -- -- 76
2017-09-12 04:00:00 13.1 9 Sudoeste 23 Oeste 0 -- -- 69
2017-09-12 03:00:00 13.2 10 Sudoeste 21 Oeste 0 -- -- 66
2017-09-12 02:00:00 13.3 10 Sudoeste 13 Sudoeste 0 -- -- 65
2017-09-12 01:00:00 15.3 7 Sudoeste 24 Oeste 0 -- -- 57
2017-09-12 00:00:00 17.4 15 Oeste 30 Oeste 0 -- -- 50
2017-09-11 23:00:00 16.3 9 Sudoeste 14 Oeste 0 -- -- 53
2017-09-11 22:00:00 19.2 11 Oeste 18 Sudoeste 0 -- -- 46
2017-09-11 21:00:00 21.4 14 Oeste 28 Sudoeste 0 -- -- 42
2017-09-11 20:00:00 22.8 20 Oeste 41 Oeste 0 -- -- 42
2017-09-11 19:00:00 24 25 Oeste 43 Oeste 0 -- -- 41
2017-09-11 18:00:00 24.3 26 Oeste 42 Oeste 0 -- -- 41
2017-09-11 17:00:00 24 23 Oeste 40 Oeste 0 -- -- 43
2017-09-11 16:00:00 23.4 23 Oeste 36 Oeste 0 -- -- 47
2017-09-11 15:00:00 22.1 23 Oeste 38 Sudoeste 0 -- -- 52
2017-09-11 14:00:00 20.7 24 Sudoeste 36 Sudoeste 0 -- -- 59
2017-09-11 13:00:00 19.4 24 Sudoeste 40 Sudoeste 0 -- -- 64
2017-09-11 12:00:00 17.7 23 Sudoeste 36 Sudoeste 0 -- -- 71
2017-09-11 11:00:00 15.3 22 Sudoeste 36 Oeste 0 -- -- 80
2017-09-11 10:00:00 14.4 21 Sudoeste 31 Oeste 0 -- -- 82
2017-09-11 09:00:00 13.8 16 Sudoeste 26 Sudoeste 0 -- -- 78
2017-09-11 08:00:00 12.3 10 Sudoeste 21 Sudoeste 0 -- -- 79
2017-09-11 07:00:00 12.3 9 Sudoeste 18 Sudoeste 0 -- -- 73
2017-09-11 06:00:00 12.7 14 Sur 21 Sur 0 -- -- 69
2017-09-11 05:00:00 14.2 10 Sudoeste 22 Sudoeste 0 -- -- 61
2017-09-11 04:00:00 14.9 14 Sudoeste 24 Sudoeste 0 -- -- 56
2017-09-11 03:00:00 15.9 16 Sudoeste 29 Sudoeste 0 -- -- 47
2017-09-11 02:00:00 16.3 20 Sudoeste 28 Sudoeste 0 -- -- 43
2017-09-11 01:00:00 14.9 13 Sudoeste 25 Sudoeste 0 -- -- 46
2017-09-11 00:00:00 15.2 13 Sudoeste 19 Sudoeste 0 -- -- 45
2017-09-10 23:00:00 16.7 11 Sudoeste 21 Sudoeste 0 -- -- 40
2017-09-10 22:00:00 17.8 12 Sudoeste 19 Oeste 0 -- -- 38
2017-09-10 21:00:00 18.5 13 Oeste 24 Oeste 0 -- -- 35
2017-09-10 20:00:00 19.3 20 Oeste 31 Oeste 0 -- -- 32
2017-09-10 19:00:00 20.2 21 Oeste 33 Noroeste 0 -- -- 32
2017-09-10 18:00:00 19.9 21 Oeste 34 Oeste 0 -- -- 33
2017-09-10 17:00:00 19.6 21 Oeste 35 Oeste 0 -- -- 34
2017-09-10 16:00:00 19 22 Oeste 33 Oeste 0 -- -- 37
2017-09-10 15:00:00 17.8 17 Oeste 36 Oeste 0 -- -- 40
2017-09-10 14:00:00 16.5 14 Noroeste 27 Oeste 0 -- -- 44
2017-09-10 13:00:00 15.3 13 Noroeste 29 Oeste 0 -- -- 47
2017-09-10 12:00:00 14.1 14 Noroeste 24 Noroeste 0 -- -- 49
2017-09-10 11:00:00 12.5 12 Sudoeste 21 Oeste 0 -- -- 62
2017-09-10 10:00:00 10.6 13 Sudoeste 20 Sudoeste 0 -- -- 73
2017-09-10 09:00:00 7.5 7 Sudoeste 12 Sudoeste 0 -- -- 86
2017-09-10 08:00:00 4.6 7 Sudoeste 11 Sudoeste 0 -- -- 91
2017-09-10 07:00:00 4.5 6 Sudoeste 12 Sudoeste 0 -- -- 91
2017-09-10 06:00:00 5 8 Sudoeste 10 Sudoeste 0 -- -- 89
2017-09-10 05:00:00 5.5 7 Sur 10 Sur 0 -- -- 88
2017-09-10 04:00:00 8.8 6 Noroeste 9 Oeste 0 -- -- 78
2017-09-10 03:00:00 8.6 5 Oeste 10 Noroeste 0 -- -- 80
2017-09-10 02:00:00 7.3 5 Sudoeste 10 Sudoeste 0 -- -- 85
2017-09-10 01:00:00 6.5 7 Sudoeste 9 Sudoeste 0 -- -- 85
2017-09-10 00:00:00 8.3 3 Sudoeste 9 Sur 0 -- -- 79
2017-09-09 23:00:00 10.2 0 Calma 6 Este 0 -- -- 71
2017-09-09 22:00:00 11.9 5 Este 27 Norte 0 -- -- 67
2017-09-09 21:00:00 13.6 10 Norte 26 Norte 0 -- -- 54
2017-09-09 20:00:00 15.8 23 Norte 45 Noroeste 0 -- -- 52
2017-09-09 19:00:00 18.6 25 Noroeste 37 Oeste 0 -- -- 32
2017-09-09 18:00:00 19.2 22 Noroeste 42 Noroeste 0 -- -- 33
2017-09-09 17:00:00 19.3 23 Noroeste 45 Oeste 0 -- -- 31
2017-09-09 16:00:00 19.5 26 Oeste 50 Oeste 0 -- -- 36
2017-09-09 15:00:00 19.2 28 Oeste 48 Oeste 0 -- -- 38
2017-09-09 14:00:00 18 28 Oeste 46 Oeste 0 -- -- 48
2017-09-09 13:00:00 16.7 22 Oeste 36 Oeste 0 -- -- 56
2017-09-09 12:00:00 15.1 24 Oeste 37 Oeste 0 -- -- 68
2017-09-09 11:00:00 14.6 21 Oeste 39 Oeste 0 -- -- 70
2017-09-09 10:00:00 14.2 18 Oeste 31 Oeste 0 -- -- 73
2017-09-09 09:00:00 13.5 18 Oeste 37 Oeste 0 -- -- 70
2017-09-09 08:00:00 13.6 19 Sudoeste 28 Sudoeste 0 -- -- 66
2017-09-09 07:00:00 14 16 Sudoeste 23 Sudoeste 0 -- -- 62
2017-09-09 06:00:00 14.1 13 Sudoeste 21 Sudoeste 0 -- -- 58
2017-09-09 05:00:00 14.6 15 Sudoeste 21 Sudoeste 0 -- -- 52
2017-09-09 04:00:00 14.8 13 Sudoeste 23 Sudoeste 0 -- -- 42
2017-09-09 03:00:00 15.6 14 Sudoeste 22 Sudoeste 0 -- -- 37
2017-09-09 02:00:00 16.3 14 Sudoeste 22 Sudoeste 0 -- -- 34
2017-09-09 01:00:00 16.4 11 Sudoeste 21 Sudoeste 0 -- -- 33
2017-09-09 00:00:00 16.4 13 Sudoeste 21 Sudoeste 0 -- -- 36
2017-09-08 23:00:00 14.1 10 Sudoeste 13 Sur 0 -- -- 45
2017-09-08 22:00:00 14.8 11 Sur 13 Sur 0 -- -- 47
2017-09-08 21:00:00 18.9 6 Sudoeste 13 Oeste 0 -- -- 36
2017-09-08 20:00:00 24.6 10 Oeste 27 Oeste 0 -- -- 25
2017-09-08 19:00:00 26.2 16 Oeste 31 Oeste 0 -- -- 20
2017-09-08 18:00:00 26.7 20 Oeste 32 Oeste 0 -- -- 19
2017-09-08 17:00:00 26.7 18 Sudoeste 35 Oeste 0 -- -- 22
2017-09-08 16:00:00 26.6 20 Sudoeste 37 Oeste 0 -- -- 23
2017-09-08 15:00:00 25.9 21 Sudoeste 36 Oeste 0 -- -- 23
2017-09-08 14:00:00 24.9 19 Sudoeste 32 Oeste 0 -- -- 26
2017-09-08 13:00:00 24.2 17 Sudoeste 30 Oeste 0 -- -- 27
2017-09-08 12:00:00 22.6 15 Sudoeste 24 Sudoeste 0 -- -- 30
2017-09-08 11:00:00 19.5 6 Oeste 12 Sudoeste 0 -- -- 45
2017-09-08 10:00:00 14.4 4 Nordeste 6 Nordeste 0 -- -- 59
2017-09-08 09:00:00 9.1 0 Calma 5 Sur 0 -- -- 85
2017-09-08 08:00:00 7 4 Sudoeste 10 Sudoeste 0 -- -- 79
2017-09-08 07:00:00 6.8 8 Sudoeste 10 Sur 0 -- -- 82
2017-09-08 06:00:00 6.9 4 Sur 7 Sur 0 -- -- 81
2017-09-08 05:00:00 7.7 6 Sur 10 Sudoeste 0 -- -- 77
2017-09-08 04:00:00 8.1 8 Sudoeste 11 Sur 0 -- -- 76
2017-09-08 03:00:00 8.4 8 Sur 10 Sur 0 -- -- 75
2017-09-08 02:00:00 8.8 6 Sudoeste 8 Sur 0 -- -- 75
2017-09-08 01:00:00 10.3 6 Sudoeste 14 Sudoeste 0 -- -- 69
2017-09-08 00:00:00 11.3 10 Sur 13 Sur 0 -- -- 65
2017-09-07 23:00:00 11.4 9 Sudoeste 13 Sur 0 -- -- 67
2017-09-07 22:00:00 13.6 8 Sudoeste 11 Sur 0 -- -- 61
2017-09-07 21:00:00 18.3 5 Noroeste 10 Noroeste 0 -- -- 43
2017-09-07 20:00:00 22.4 10 Noroeste 20 Norte 0 -- -- 31
2017-09-07 19:00:00 24.3 14 Noroeste 20 Norte 0 -- -- 26
2017-09-07 18:00:00 24.8 12 Norte 20 Norte 0 -- -- 24
2017-09-07 17:00:00 24.9 10 Norte 20 Norte 0 -- -- 22
2017-09-07 16:00:00 24.4 8 Norte 19 Norte 0 -- -- 29
2017-09-07 15:00:00 23.2 10 Noroeste 17 Oeste 0 -- -- 38
2017-09-07 14:00:00 21.9 5 Oeste 14 Oeste 0 -- -- 32
2017-09-07 13:00:00 20.3 4 Noroeste 14 Oeste 0 -- -- 50
2017-09-07 12:00:00 18 4 Oeste 17 Sudoeste 0 -- -- 58
2017-09-07 11:00:00 15.5 10 Sudoeste 16 Sudoeste 0 -- -- 73
2017-09-07 10:00:00 12.9 9 Sudoeste 17 Sudoeste 0 -- -- 83
2017-09-07 09:00:00 9.9 5 Sur 9 Norte 0 -- -- 95
2017-09-07 08:00:00 7.5 0 Calma 10 Sur 0 -- -- 93
2017-09-07 07:00:00 7.8 9 Sur 10 Sur 0 -- -- 94
2017-09-07 06:00:00 8.1 7 Sudoeste 11 Sur 0 -- -- 94
2017-09-07 05:00:00 9 5 Sudoeste 8 Sur 0 -- -- 93
2017-09-07 04:00:00 9.2 6 Sur 8 Sur 0 -- -- 90
2017-09-07 03:00:00 10.3 5 Sudoeste 9 Sur 0 -- -- 89
2017-09-07 02:00:00 11.2 6 Sudoeste 7 Sur 0 -- -- 87
2017-09-07 01:00:00 12.5 3 Sudoeste 10 Sur 0 -- -- 83
2017-09-07 00:00:00 14 7 Sudoeste 10 Sur 0 -- -- 76
2017-09-06 23:00:00 16.7 5 Norte 15 Nordeste 0 -- -- 66
2017-09-06 22:00:00 18.3 10 Nordeste 18 Norte 0 -- -- 59
2017-09-06 21:00:00 20.7 15 Norte 30 Noroeste 0 -- -- 52
2017-09-06 20:00:00 23.3 20 Norte 32 Norte 0 -- -- 49
2017-09-06 19:00:00 26 22 Norte 31 Norte 0 -- -- 46
2017-09-06 18:00:00 27.1 14 Norte 22 Norte 0 -- -- 38
2017-09-06 17:00:00 27.3 10 Norte 24 Norte 0 -- -- 37
2017-09-06 16:00:00 27.3 11 Noroeste 20 Norte 0 -- -- 40
2017-09-06 15:00:00 26.1 11 Norte 23 Nordeste 0 -- -- 43
2017-09-06 14:00:00 25.4 9 Nordeste 22 Nordeste 0 -- -- 44
2017-09-06 13:00:00 24.5 13 Nordeste 21 Nordeste 0 -- -- 47
2017-09-06 12:00:00 23 13 Este 27 Nordeste 0 -- -- 52
2017-09-06 11:00:00 21.7 14 Este 26 Este 0 -- -- 55
2017-09-06 10:00:00 18.8 7 Nordeste 13 Este 0 -- -- 73
2017-09-06 09:00:00 14.1 0 Calma 8 Sudoeste 0 -- -- 85
2017-09-06 08:00:00 12.3 6 Sudoeste 9 Sur 0 -- -- 87
2017-09-06 07:00:00 12.5 5 Sur 8 Sur 0 -- -- 88
2017-09-06 06:00:00 12.1 5 Sudoeste 13 Sur 0 -- -- 88
2017-09-06 05:00:00 11.9 7 Sur 15 Sur 0 -- -- 88
2017-09-06 04:00:00 12.8 5 Sudoeste 10 Sudoeste 0 -- -- 84
2017-09-06 03:00:00 13.7 7 Sur 10 Sur 0 -- -- 81
2017-09-06 02:00:00 14.3 4 Sudoeste 10 Sur 0 -- -- 79
2017-09-06 01:00:00 15.2 8 Sur 10 Sudoeste 0 -- -- 76
2017-09-06 00:00:00 18.5 2 Sur 23 Norte 0 -- -- 64
2017-09-05 23:00:00 18.9 11 Sur 14 Sur 0 -- -- 60
2017-09-05 22:00:00 19.8 10 Sur 13 Sur 0 -- -- 59
2017-09-05 21:00:00 23 0 Calma 14 Norte 0 -- -- 49
2017-09-05 20:00:00 26.8 12 Norte 22 Norte 0 -- -- 37
2017-09-05 19:00:00 27.9 12 Nordeste 22 Norte 0 -- -- 37
2017-09-05 18:00:00 28.8 10 Noroeste 26 Noroeste 0 -- -- 38
2017-09-05 17:00:00 28.4 8 Sudoeste 22 Oeste 0 -- -- 39
2017-09-05 16:00:00 27.8 11 Oeste 20 Sudoeste 0 -- -- 40
2017-09-05 15:00:00 27 8 Oeste 22 Oeste 0 -- -- 40
2017-09-05 14:00:00 25.9 6 Oeste 15 Noroeste 0 -- -- 43
2017-09-05 13:00:00 25.6 4 Este 13 Oeste 0 -- -- 42
2017-09-05 12:00:00 23.9 6 Sudoeste 12 Sudoeste 0 -- -- 48
2017-09-05 11:00:00 21.4 2 Nordeste 6 Este 0 -- -- 60
2017-09-05 10:00:00 17.8 3 Nordeste 4 Norte 0 -- -- 71
2017-09-05 09:00:00 13.6 0 Calma 8 Sur 0 -- -- 87
2017-09-05 08:00:00 10.2 6 Sudoeste 8 Sur 0 -- -- 94
2017-09-05 07:00:00 10.5 4 Sur 8 Sudoeste 0 -- -- 93
2017-09-05 06:00:00 10.7 7 Sudoeste 10 Sudoeste 0 -- -- 92
2017-09-05 05:00:00 10.9 6 Sudoeste 9 Sudoeste 0 -- -- 91
2017-09-05 04:00:00 11.3 4 Sudoeste 9 Sur 0 -- -- 89
2017-09-05 03:00:00 11.9 6 Sur 11 Sudoeste 0 -- -- 88
2017-09-05 02:00:00 12.3 5 Sudoeste 6 Sudoeste 0 -- -- 86
2017-09-05 01:00:00 13.2 4 Sudoeste 9 Sur 0 -- -- 83
2017-09-05 00:00:00 14.3 5 Sudoeste 10 Sur 0 -- -- 80
2017-09-04 23:00:00 15.2 9 Sudoeste 13 Sur 0 -- -- 76
2017-09-04 22:00:00 16.4 10 Sur 12 Sur 0 -- -- 73
2017-09-04 21:00:00 19.8 3 Sur 6 Nordeste 0 -- -- 62
2017-09-04 20:00:00 24.1 3 Noroeste 9 Sudoeste 0 -- -- 44
2017-09-04 19:00:00 24.1 5 Noroeste 14 Noroeste 0 -- -- 43
2017-09-04 18:00:00 23.8 8 Nordeste 17 Nordeste 0 -- -- 45
2017-09-04 17:00:00 23.5 6 Noroeste 20 Oeste 0 -- -- 46
2017-09-04 16:00:00 22.1 7 Norte 19 Noroeste 0 -- -- 52
2017-09-04 15:00:00 21.8 10 Oeste 21 Oeste 0 -- -- 54
2017-09-04 14:00:00 21 8 Oeste 23 Oeste 0 -- -- 56
2017-09-04 13:00:00 19.1 12 Sudoeste 27 Sur 0 -- -- 68
2017-09-04 12:00:00 18.7 17 Sudoeste 26 Sudoeste 0 -- -- 71
2017-09-04 11:00:00 17.2 17 Oeste 29 Oeste 0 -- -- 74
2017-09-04 10:00:00 15.7 17 Sudoeste 27 Oeste 0 -- -- 79
2017-09-04 09:00:00 15.2 17 Sudoeste 25 Sudoeste 0 -- -- 80
2017-09-04 08:00:00 15 14 Oeste 25 Oeste 0 -- -- 77
2017-09-04 07:00:00 15.4 15 Sudoeste 22 Sudoeste 0 -- -- 70
2017-09-04 06:00:00 15.9 11 Sudoeste 23 Sudoeste 0 -- -- 63
2017-09-04 05:00:00 16.1 15 Sudoeste 22 Sudoeste 0 -- -- 54
2017-09-04 04:00:00 15.9 13 Sudoeste 22 Sudoeste 0 -- -- 53
2017-09-04 03:00:00 16.6 15 Sudoeste 23 Sudoeste 0 -- -- 48
2017-09-04 02:00:00 17.4 15 Sudoeste 24 Sudoeste 0 -- -- 45
2017-09-04 01:00:00 17.9 12 Sudoeste 19 Sudoeste 0 -- -- 46
2017-09-04 00:00:00 19 12 Sudoeste 17 Sudoeste 0 -- -- 42
2017-09-03 23:00:00 19.5 10 Sudoeste 15 Sudoeste 0 -- -- 42
2017-09-03 22:00:00 18.3 10 Sur 12 Sur 0 -- -- 52
2017-09-03 21:00:00 20.5 7 Sur 9 Sur 0 -- -- 48
2017-09-03 20:00:00 25.1 6 Oeste 23 Oeste 0 -- -- 30
2017-09-03 19:00:00 26.7 15 Oeste 27 Oeste 0 -- -- 28
2017-09-03 18:00:00 26.6 16 Oeste 27 Oeste 0 -- -- 25
2017-09-03 17:00:00 26.5 15 Sudoeste 31 Sudoeste 0 -- -- 29
2017-09-03 16:00:00 25.8 17 Sudoeste 31 Sudoeste 0 -- -- 30
2017-09-03 15:00:00 25.2 15 Oeste 31 Oeste 0 -- -- 30
2017-09-03 14:00:00 24.2 14 Sudoeste 30 Sudoeste 0 -- -- 36
2017-09-03 13:00:00 23 15 Oeste 25 Sudoeste 0 -- -- 36
2017-09-03 12:00:00 21.5 15 Oeste 23 Oeste 0 -- -- 38
2017-09-03 11:00:00 20.1 15 Sudoeste 21 Sudoeste 0 -- -- 41
2017-09-03 10:00:00 18.2 9 Sudoeste 13 Sudoeste 0 -- -- 47
2017-09-03 09:00:00 14.6 8 Sudoeste 12 Sur 0 -- -- 57
2017-09-03 08:00:00 12.6 5 Oeste 11 Sudoeste 0 -- -- 72
2017-09-03 07:00:00 12.7 9 Sudoeste 12 Sur 0 -- -- 56
2017-09-03 06:00:00 11.2 8 Sudoeste 11 Sudoeste 0 -- -- 65
2017-09-03 05:00:00 10.2 8 Sur 9 Sur 0 -- -- 73
2017-09-03 04:00:00 10.2 0 Calma 5 Noroeste 0 -- -- 79
2017-09-03 03:00:00 10.8 3 Sur 6 Sudoeste 0 -- -- 71
2017-09-03 02:00:00 11 2 Sudoeste 5 Sudoeste 0 -- -- 74
2017-09-03 01:00:00 11.7 2 Sudoeste 12 Sur 0 -- -- 67
2017-09-03 00:00:00 12.2 11 Sur 12 Sur 0 -- -- 65
2017-09-02 23:00:00 12.7 9 Sudoeste 14 Sur 0 -- -- 65
2017-09-02 22:00:00 13.3 11 Sur 12 Sur 0 -- -- 66
2017-09-02 21:00:00 19.6 6 Noroeste 14 Norte 0 -- -- 46
2017-09-02 20:00:00 22.4 9 Norte 12 Norte 0 -- -- 34
2017-09-02 19:00:00 23.6 3 Oeste 16 Oeste 0 -- -- 33
2017-09-02 18:00:00 23 6 Noroeste 15 Noroeste 0 -- -- 36
2017-09-02 17:00:00 22.5 5 Noroeste 15 Noroeste 0 -- -- 33
2017-09-02 16:00:00 21.4 5 Oeste 14 Noroeste 0 -- -- 35
2017-09-02 15:00:00 20.1 7 Este 14 Nordeste 0 -- -- 36
2017-09-02 14:00:00 18.7 6 Nordeste 13 Nordeste 0 -- -- 42
2017-09-02 13:00:00 17 5 Norte 14 Norte 0 -- -- 43
2017-09-02 12:00:00 15.4 6 Norte 11 Nordeste 0 -- -- 61
2017-09-02 11:00:00 13.4 3 Noroeste 8 Norte 0 -- -- 71
2017-09-02 10:00:00 11.8 2 Norte 4 Noroeste 0 -- -- 81
2017-09-02 09:00:00 8 0 Calma 8 Sur 0 -- -- 95
2017-09-02 08:00:00 5.1 5 Sudoeste 8 Sudoeste 0 -- -- 96
2017-09-02 07:00:00 5.7 6 Sudoeste 9 Sudoeste 0 -- -- 95
2017-09-02 06:00:00 5.9 6 Sudoeste 7 Sudoeste 0 -- -- 95
2017-09-02 05:00:00 6.5 6 Sudoeste 8 Sudoeste 0 -- -- 94
2017-09-02 04:00:00 7.5 5 Sudoeste 8 Sudoeste 0 -- -- 93
2017-09-02 03:00:00 8.3 0 Calma 3 Sur 0 -- -- 89
2017-09-02 02:00:00 10.3 3 Norte 9 Norte 0 -- -- 81
2017-09-02 01:00:00 10.8 5 Norte 9 Norte 0 -- -- 81
2017-09-02 00:00:00 12 8 Norte 14 Nordeste 0 -- -- 75
2017-09-01 23:00:00 12.9 8 Nordeste 13 Norte 0 -- -- 71
2017-09-01 22:00:00 14.3 11 Norte 21 Norte 0 -- -- 65
2017-09-01 21:00:00 16.3 12 Norte 29 Noroeste 0 -- -- 53
2017-09-01 20:00:00 18.8 9 Norte 26 Noroeste 0 -- -- 46
2017-09-01 19:00:00 19.8 18 Norte 27 Norte 0 -- -- 44
2017-09-01 18:00:00 20.5 19 Norte 30 Norte 0 -- -- 43
2017-09-01 17:00:00 21.2 14 Norte 26 Noroeste 0 -- -- 44
2017-09-01 16:00:00 20.7 9 Norte 22 Noroeste 0 -- -- 50
2017-09-01 15:00:00 20.6 13 Norte 24 Norte 0 -- -- 52
2017-09-01 14:00:00 20.3 10 Norte 23 Norte 0 -- -- 49
2017-09-01 13:00:00 20 12 Norte 20 Norte 0 -- -- 51
2017-09-01 12:00:00 19.8 5 Norte 15 Nordeste 0 -- -- 52
2017-09-01 11:00:00 18.1 0 Calma 5 Nordeste 0 -- -- 64
2017-09-01 10:00:00 14 2 Norte 4 Norte 0 -- -- 85
2017-09-01 09:00:00 10.9 2 Sudoeste 5 Oeste 0 -- -- 95
2017-09-01 08:00:00 9.3 4 Sudoeste 5 Sur 0 -- -- 96
2017-09-01 07:00:00 9.5 5 Sur 7 Sur 0 -- -- 93
2017-09-01 06:00:00 11.2 0 Calma 15 Nordeste 0 -- -- 89
2017-09-01 05:00:00 12.3 5 Noroeste 22 Sudeste 0 -- -- 85
2017-09-01 04:00:00 12.8 12 Este 22 Este 0 -- -- 83
2017-09-01 03:00:00 13.6 9 Nordeste 20 Nordeste 0 -- -- 81
2017-09-01 02:00:00 13.9 9 Este 21 Este 0 -- -- 81
2017-09-01 01:00:00 14.4 10 Este 17 Nordeste 0 -- -- 82
2017-09-01 00:00:00 13.5 3 Norte 6 Norte 0 -- -- 84
2017-08-31 23:00:00 14.5 3 Norte 4 Norte 0 -- -- 83
2017-08-31 22:00:00 16.2 0 Calma 16 Norte 0 -- -- 73
2017-08-31 21:00:00 18.4 10 Norte 19 Noroeste 0 -- -- 62
2017-08-31 20:00:00 20.6 14 Noroeste 18 Noroeste 0 -- -- 55
2017-08-31 19:00:00 21.2 11 Nordeste 23 Norte 0 -- -- 60
2017-08-31 18:00:00 22 8 Noroeste 23 Oeste 0 -- -- 54
2017-08-31 17:00:00 22.1 12 Noroeste 21 Noroeste 0 -- -- 56
2017-08-31 16:00:00 21.7 6 Oeste 21 Noroeste 0 -- -- 56
2017-08-31 15:00:00 20.9 11 Noroeste 19 Noroeste 0 -- -- 63
2017-08-31 14:00:00 19.3 4 Nordeste 16 Norte 0 -- -- 64
2017-08-31 13:00:00 18.8 6 Norte 16 Este 0.8 -- -- 70
2017-08-31 12:00:00 17.5 7 Nordeste 13 Nordeste 0 -- -- 80
2017-08-31 11:00:00 15.1 9 Nordeste 14 Norte 0 -- -- 87
2017-08-31 10:00:00 14.4 6 Noroeste 10 Nordeste 0 -- -- 95
2017-08-31 09:00:00 13.8 4 Nordeste 8 Nordeste 0 -- -- 96
2017-08-31 08:00:00 13.4 5 Nordeste 9 Norte 0 -- -- 96
2017-08-31 07:00:00 13.8 6 Nordeste 10 Nordeste 0 -- -- 96
2017-08-31 06:00:00 14 0 Calma 4 Sur 0 -- -- 94
2017-08-31 05:00:00 14.2 0 Calma 8 Sur 0 -- -- 94
2017-08-31 04:00:00 14.3 3 Sudoeste 7 Sur 0 -- -- 95
2017-08-31 03:00:00 14.4 4 Sur 8 Sudoeste 0 -- -- 93
2017-08-31 02:00:00 14.7 3 Sudoeste 9 Sudoeste 0.8 -- -- 92
2017-08-31 01:00:00 15 6 Sur 9 Sur 1.6 -- -- 91
2017-08-31 00:00:00 15.5 5 Norte 10 Norte 0.4 -- -- 87
2017-08-30 23:00:00 16.1 6 Norte 26 Norte 0 -- -- 81
2017-08-30 22:00:00 17.6 18 Norte 35 Norte 0 -- -- 73
2017-08-30 21:00:00 19.2 4 Sur 8 Sur 0 -- -- 62
2017-08-30 20:00:00 20.7 3 Sudoeste 13 Sur 0 -- -- 60
2017-08-30 19:00:00 21.9 9 Sudoeste 17 Sudoeste 0 -- -- 51
2017-08-30 18:00:00 21.9 7 Sudoeste 25 Sudeste 0 -- -- 53
2017-08-30 17:00:00 21.8 17 Sur 26 Sudeste 0 -- -- 55
2017-08-30 16:00:00 21.7 8 Sudoeste 23 Sudoeste 0 -- -- 52
2017-08-30 15:00:00 20.9 16 Sudoeste 31 Sur 0 -- -- 54
2017-08-30 14:00:00 20.3 10 Sudoeste 23 Sudoeste 0 -- -- 62
2017-08-30 13:00:00 20.7 9 Oeste 20 Oeste 0 -- -- 65
2017-08-30 12:00:00 19.4 9 Sudoeste 19 Oeste 0 -- -- 67
2017-08-30 11:00:00 18 9 Oeste 14 Oeste 0 -- -- 72
2017-08-30 10:00:00 15.7 7 Sudoeste 12 Sur 0 -- -- 85
2017-08-30 09:00:00 13.8 6 Sudoeste 10 Oeste 0 -- -- 93
2017-08-30 08:00:00 13.4 7 Sur 14 Sudoeste 0 -- -- 91
2017-08-30 07:00:00 12.2 9 Sudoeste 12 Sudoeste 0 -- -- 96
2017-08-30 06:00:00 11.8 7 Sur 10 Sur 0 -- -- 94
2017-08-30 05:00:00 12.4 3 Sur 14 Noroeste 0 -- -- 93
2017-08-30 04:00:00 12.4 4 Sur 13 Oeste 0 -- -- 90
2017-08-30 03:00:00 13 6 Sudoeste 15 Oeste 0 -- -- 89
2017-08-30 02:00:00 13.4 2 Sur 12 Sudoeste 0 -- -- 89
2017-08-30 01:00:00 14.3 10 Sur 15 Sur 0 -- -- 81
2017-08-30 00:00:00 14.4 10 Sur 20 Sudoeste 0 -- -- 89
2017-08-29 23:00:00 15.2 5 Sudoeste 12 Norte 0 -- -- 89
2017-08-29 22:00:00 16.3 3 Nordeste 11 Nordeste 0 -- -- 86
2017-08-29 21:00:00 16.7 3 Norte 20 Noroeste 0 -- -- 83
2017-08-29 20:00:00 17.2 3 Nordeste 20 Este 0.2 -- -- 83
2017-08-29 19:00:00 17.6 10 Este 20 Este 0 -- -- 79
2017-08-29 18:00:00 16.4 11 Este 41 Sudeste 0.6 -- -- 78
2017-08-29 17:00:00 22.6 10 Norte 21 Noroeste 0 -- -- 50
2017-08-29 16:00:00 21.8 12 Norte 20 Noroeste 0 -- -- 59
2017-08-29 15:00:00 21 9 Noroeste 21 Noroeste 0 -- -- 59
2017-08-29 14:00:00 19.7 14 Oeste 24 Oeste 0 -- -- 70
2017-08-29 13:00:00 19.8 4 Este 12 Norte 0 -- -- 71
2017-08-29 12:00:00 18.3 5 Este 12 Este 0 -- -- 78
2017-08-29 11:00:00 14.8 3 Este 9 Nordeste 0 -- -- 98
2017-08-29 10:00:00 12.8 5 Norte 8 Noroeste 0 -- -- 99
2017-08-29 09:00:00 11.9 4 Oeste 8 Oeste 0 -- -- 98
2017-08-29 08:00:00 11.1 2 Sudoeste 7 Sudoeste 0 -- -- 97
2017-08-29 07:00:00 12 3 Oeste 6 Norte 0 -- -- 97
2017-08-29 06:00:00 12.6 5 Noroeste 12 Noroeste 0 -- -- 97
2017-08-29 05:00:00 13 2 Norte 7 Sudeste 0 -- -- 95
2017-08-29 04:00:00 13.3 6 Sudeste 10 Nordeste 0 -- -- 95
2017-08-29 03:00:00 13.7 5 Nordeste 15 Sur 0 -- -- 91
2017-08-29 02:00:00 11.7 5 Sur 8 Sur 0 -- -- 96
2017-08-29 01:00:00 13 3 Sudeste 10 Este 0 -- -- 93
2017-08-29 00:00:00 13.7 8 Este 24 Sudeste 0 -- -- 94
2017-08-28 23:00:00 14.3 17 Este 26 Este 0 -- -- 93
2017-08-28 22:00:00 14.3 8 Este 25 Este 0.2 -- -- 94
2017-08-28 21:00:00 14.3 12 Este 22 Nordeste 1.2 -- -- 94
2017-08-28 20:00:00 14.6 12 Este 32 Este 0.2 -- -- 92
2017-08-28 19:00:00 14.5 12 Este 23 Este 0 -- -- 93
2017-08-28 18:00:00 14.6 8 Nordeste 13 Nordeste 0.8 -- -- 95
2017-08-28 17:00:00 14.6 0 Calma 22 Este 7.4 -- -- 95
2017-08-28 16:00:00 14.7 7 Sudoeste 14 Oeste 0.6 -- -- 94
2017-08-28 15:00:00 14.3 5 Nordeste 35 Oeste 17.4 -- -- 94
2017-08-28 14:00:00 16.9 10 Este 20 Este 2.8 -- -- 90
2017-08-28 13:00:00 16 4 Este 18 Norte 3 -- -- 90
2017-08-28 12:00:00 17.7 12 Oeste 20 Oeste 0.6 -- -- 91
2017-08-28 11:00:00 17.8 5 Este 18 Nordeste 0 -- -- 89
2017-08-28 10:00:00 16.8 6 Norte 10 Noroeste 0 -- -- 92
2017-08-28 09:00:00 15.9 3 Noroeste 20 Sudeste 0.4 -- -- 93
2017-08-28 08:00:00 15.1 6 Este 25 Este 3.4 -- -- 93
2017-08-28 07:00:00 15.2 3 Sur 12 Este 0 -- -- 90
2017-08-28 06:00:00 15.1 5 Sudoeste 15 Sur 0 -- -- 90
2017-08-28 05:00:00 15.1 3 Sudeste 38 Oeste 1.4 -- -- 90
2017-08-28 04:00:00 14.9 5 Noroeste 9 Norte 0.2 -- -- 94
2017-08-28 03:00:00 14.7 8 Noroeste 14 Oeste 0 -- -- 91
2017-08-28 02:00:00 14.1 3 Sur 19 Oeste 0 -- -- 91
2017-08-28 01:00:00 14.4 3 Nordeste 25 Sudeste 0 -- -- 88
2017-08-28 00:00:00 14.2 16 Este 26 Este 0 -- -- 88
2017-08-27 23:00:00 14 10 Nordeste 15 Nordeste 0 -- -- 88
2017-08-27 22:00:00 13.9 8 Este 19 Sur 0.2 -- -- 89
2017-08-27 21:00:00 14.6 13 Sur 53 Oeste 1.8 -- -- 84
2017-08-27 20:00:00 21.5 12 Norte 31 Sudeste 0 -- -- 67
2017-08-27 19:00:00 22.8 16 Sudeste 30 Este 0 -- -- 54
2017-08-27 18:00:00 22.9 13 Sudeste 31 Sudeste 0 -- -- 52
2017-08-27 17:00:00 19.9 17 Este 31 Nordeste 0 -- -- 78
2017-08-27 16:00:00 18.5 15 Este 23 Este 0 -- -- 81
2017-08-27 15:00:00 18.5 9 Este 15 Este 0.2 -- -- 82
2017-08-27 14:00:00 16.2 8 Noroeste 42 Oeste 4 -- -- 87
2017-08-27 13:00:00 19 3 Sudoeste 12 Noroeste 0 -- -- 72
2017-08-27 12:00:00 18.3 6 Nordeste 13 Nordeste 0.2 -- -- 79
2017-08-27 11:00:00 18.6 4 Nordeste 17 Norte 0 -- -- 73
2017-08-27 10:00:00 18.4 16 Norte 32 Noroeste 0 -- -- 70
2017-08-27 09:00:00 19.1 5 Sudeste 31 Sudeste 0.4 -- -- 66
2017-08-27 08:00:00 17.6 8 Sudeste 18 Sudeste 0.2 -- -- 76
2017-08-27 07:00:00 18 2 Sur 17 Noroeste 0.6 -- -- 78
2017-08-27 06:00:00 20.8 13 Oeste 33 Sudoeste 0 -- -- 49
2017-08-27 05:00:00 22.7 4 Este 35 Sur 0 -- -- 39
2017-08-27 04:00:00 21.3 15 Noroeste 22 Noroeste 0 -- -- 39
2017-08-27 03:00:00 21.6 5 Sur 19 Noroeste 0 -- -- 39
2017-08-27 02:00:00 21.5 10 Norte 18 Noroeste 0 -- -- 39
2017-08-27 01:00:00 20.9 6 Nordeste 11 Sur 0 -- -- 40
2017-08-27 00:00:00 20.6 5 Nordeste 14 Sur 0 -- -- 42
2017-08-26 23:00:00 19.6 0 Calma 8 Sudeste 0 -- -- 46
2017-08-26 22:00:00 22.1 4 Sudoeste 20 Sur 0 -- -- 40
2017-08-26 21:00:00 22.4 14 Sur 32 Sur 0 -- -- 42
2017-08-26 20:00:00 22.6 14 Sudoeste 46 Sudoeste 0 -- -- 46
2017-08-26 19:00:00 26.1 32 Sudoeste 55 Sur 0 -- -- 31
2017-08-26 18:00:00 26.1 17 Sur 37 Sudeste 0 -- -- 32
2017-08-26 17:00:00 27.1 15 Sudoeste 49 Oeste 0 -- -- 28
2017-08-26 16:00:00 29.2 14 Oeste 34 Sudoeste 0 -- -- 21
2017-08-26 15:00:00 29.6 9 Oeste 30 Oeste 0 -- -- 20
2017-08-26 14:00:00 28.1 15 Noroeste 47 Sudoeste 0 -- -- 21
2017-08-26 13:00:00 27.9 19 Sudoeste 36 Oeste 0 -- -- 23
2017-08-26 12:00:00 28.1 14 Oeste 25 Oeste 0 -- -- 24
2017-08-26 11:00:00 27.6 10 Oeste 20 Sudoeste 0 -- -- 25
2017-08-26 10:00:00 23.6 11 Sudoeste 15 Sudoeste 0 -- -- 33
2017-08-26 09:00:00 14.9 0 Calma 9 Sur 0 -- -- 57
2017-08-26 08:00:00 11 5 Sudoeste 7 Sudoeste 0 -- -- 62
2017-08-26 07:00:00 11.5 3 Sudoeste 7 Sudoeste 0 -- -- 56
2017-08-26 06:00:00 12.1 0 Calma 11 Sudoeste 0 -- -- 55
2017-08-26 05:00:00 12.4 5 Sudoeste 12 Sudoeste 0 -- -- 53
2017-08-26 04:00:00 13.4 0 Calma 9 Sur 0 -- -- 51
2017-08-26 03:00:00 16.9 7 Sur 15 Sur 0 -- -- 39
2017-08-26 02:00:00 17.2 10 Sur 16 Sur 0 -- -- 38
2017-08-26 01:00:00 17.5 10 Sudoeste 13 Sudoeste 0 -- -- 40
2017-08-26 00:00:00 19.6 9 Sur 14 Sudoeste 0 -- -- 35
2017-08-25 23:00:00 21.9 12 Sudoeste 17 Sur 0 -- -- 32
2017-08-25 22:00:00 21 6 Sur 13 Sur 0 -- -- 32
2017-08-25 21:00:00 25.2 4 Sur 18 Oeste 0 -- -- 25
2017-08-25 20:00:00 29.6 11 Sudoeste 33 Sudoeste 0 -- -- 19
2017-08-25 19:00:00 30.7 19 Sudoeste 37 Sur 0 -- -- 16
2017-08-25 18:00:00 31.7 27 Sudoeste 45 Sudoeste 0 -- -- 18
2017-08-25 17:00:00 32.8 23 Oeste 42 Sudoeste 0 -- -- 18
2017-08-25 16:00:00 31.8 17 Sudoeste 41 Sur 0 -- -- 20
2017-08-25 15:00:00 31 13 Sur 29 Sur 0 -- -- 22
2017-08-25 14:00:00 30.2 15 Oeste 31 Oeste 0 -- -- 22
2017-08-25 13:00:00 28.8 19 Oeste 32 Oeste 0 -- -- 24
2017-08-25 12:00:00 27.1 11 Sudoeste 24 Sudoeste 0 -- -- 25
2017-08-25 11:00:00 23.2 6 Noroeste 13 Oeste 0 -- -- 32
2017-08-25 10:00:00 17.8 6 Sudoeste 14 Sudoeste 0 -- -- 46
2017-08-25 09:00:00 14.1 0 Calma 4 Nordeste 0 -- -- 50
2017-08-25 08:00:00 12 3 Sudoeste 12 Sudoeste 0 -- -- 53
2017-08-25 07:00:00 10.9 5 Sudoeste 9 Sudoeste 0 -- -- 58
2017-08-25 06:00:00 11.4 7 Sur 10 Sur 0 -- -- 57
2017-08-25 05:00:00 13.1 0 Calma 13 Sur 0 -- -- 50
2017-08-25 04:00:00 13.9 10 Sudoeste 13 Sur 0 -- -- 46
2017-08-25 03:00:00 14.6 12 Sur 14 Sudoeste 0 -- -- 42
2017-08-25 02:00:00 15.6 12 Sur 14 Sur 0 -- -- 40
2017-08-25 01:00:00 16.8 9 Sur 11 Sur 0 -- -- 38
2017-08-25 00:00:00 18.2 9 Sur 12 Sur 0 -- -- 35
2017-08-24 23:00:00 19.8 10 Sudoeste 13 Sudoeste 0 -- -- 32
2017-08-24 22:00:00 21.5 8 Sur 13 Sur 0 -- -- 30
2017-08-24 21:00:00 26.7 8 Sudoeste 32 Oeste 0 -- -- 23
2017-08-24 20:00:00 30.4 18 Sudoeste 39 Sudoeste 0 -- -- 17
2017-08-24 19:00:00 31.8 27 Oeste 39 Oeste 0 -- -- 17
2017-08-24 18:00:00 31.6 23 Sur 52 Sudoeste 0 -- -- 22
2017-08-24 17:00:00 32 24 Sur 47 Sur 0 -- -- 21
2017-08-24 16:00:00 32 22 Sur 42 Sur 0 -- -- 23
2017-08-24 15:00:00 31.4 23 Sur 44 Sur 0 -- -- 24
2017-08-24 14:00:00 30.7 25 Sur 42 Sudoeste 0 -- -- 24
2017-08-24 13:00:00 30.6 23 Sudoeste 39 Sudoeste 0 -- -- 26
2017-08-24 12:00:00 29.8 19 Sur 30 Sudoeste 0 -- -- 27
2017-08-24 11:00:00 24.7 4 Nordeste 8 Nordeste 0 -- -- 49
2017-08-24 10:00:00 20.5 3 Nordeste 8 Nordeste 0 -- -- 66
2017-08-24 09:00:00 15.9 2 Sur 8 Sur 0 -- -- 70
2017-08-24 08:00:00 12 3 Sur 10 Sudoeste 0 -- -- 71
2017-08-24 07:00:00 12.7 4 Sur 11 Sur 0 -- -- 67
2017-08-24 06:00:00 13.7 0 Calma 7 Sur 0 -- -- 64
2017-08-24 05:00:00 14.2 6 Sudoeste 9 Sur 0 -- -- 66
2017-08-24 04:00:00 15.3 0 Calma 9 Sudoeste 0 -- -- 64
2017-08-24 03:00:00 16.8 10 Sur 14 Sudoeste 0 -- -- 62
2017-08-24 02:00:00 19.8 4 Sur 19 Este 0 -- -- 56
2017-08-24 01:00:00 22.7 17 Este 36 Sudeste 0 -- -- 51
2017-08-24 00:00:00 23.6 17 Este 30 Este 0 -- -- 54
2017-08-23 23:00:00 25.3 12 Nordeste 25 Nordeste 0 -- -- 47
2017-08-23 22:00:00 26.2 12 Sudoeste 17 Sudoeste 0 -- -- 34
2017-08-23 21:00:00 27.6 9 Sur 30 Sur 0 -- -- 32
2017-08-23 20:00:00 29.9 15 Sur 27 Sur 0 -- -- 30
2017-08-23 19:00:00 32.1 12 Sur 23 Sur 0 -- -- 26
2017-08-23 18:00:00 32.3 13 Sudoeste 28 Oeste 0 -- -- 24
2017-08-23 17:00:00 32.2 19 Sudoeste 28 Sur 0 -- -- 25
2017-08-23 16:00:00 33 8 Noroeste 34 Oeste 0 -- -- 22
2017-08-23 15:00:00 32 6 Noroeste 22 Oeste 0 -- -- 24
2017-08-23 14:00:00 31.4 10 Noroeste 24 Oeste 0 -- -- 25
2017-08-23 13:00:00 29.9 10 Oeste 19 Oeste 0 -- -- 27
2017-08-23 12:00:00 28.2 9 Oeste 14 Oeste 0 -- -- 30
2017-08-23 11:00:00 25.8 5 Sudoeste 12 Oeste 0 -- -- 34
2017-08-23 10:00:00 22.1 2 Sur 4 Nordeste 0 -- -- 48
2017-08-23 09:00:00 17.2 2 Sur 9 Sur 0 -- -- 57
2017-08-23 08:00:00 13.9 6 Sudoeste 10 Sudoeste 0 -- -- 63
2017-08-23 07:00:00 14.3 3 Sur 6 Sudoeste 0 -- -- 61
2017-08-23 06:00:00 16.4 3 Nordeste 14 Sudoeste 0 -- -- 53
2017-08-23 05:00:00 16.4 9 Sudoeste 12 Sur 0 -- -- 53
2017-08-23 04:00:00 16.2 3 Nordeste 10 Sudoeste 0 -- -- 53
2017-08-23 03:00:00 17.8 9 Sur 10 Sur 0 -- -- 50
2017-08-23 02:00:00 18.7 2 Sudeste 11 Sur 0 -- -- 51
2017-08-23 01:00:00 20.5 9 Sur 15 Sudoeste 0 -- -- 45
2017-08-23 00:00:00 21.4 10 Sudoeste 14 Sur 0 -- -- 48
2017-08-22 23:00:00 23.3 9 Sudoeste 12 Sur 0 -- -- 42
2017-08-22 22:00:00 24.7 8 Sur 10 Sur 0 -- -- 36
2017-08-22 21:00:00 30.3 5 Oeste 22 Noroeste 0 -- -- 23
2017-08-22 20:00:00 32.9 17 Noroeste 26 Oeste 0 -- -- 24
2017-08-22 19:00:00 33.6 15 Oeste 31 Oeste 0 -- -- 23
2017-08-22 18:00:00 34.1 15 Oeste 32 Sudoeste 0 -- -- 23
2017-08-22 17:00:00 34.3 16 Sudoeste 30 Sudoeste 0 -- -- 25
2017-08-22 16:00:00 34.2 19 Oeste 37 Oeste 0 -- -- 25
2017-08-22 15:00:00 34 24 Oeste 40 Oeste 0 -- -- 27
2017-08-22 14:00:00 33.4 23 Oeste 36 Oeste 0 -- -- 26
2017-08-22 13:00:00 32.3 15 Oeste 28 Sudoeste 0 -- -- 31
2017-08-22 12:00:00 31.6 9 Norte 17 Noroeste 0 -- -- 34
2017-08-22 11:00:00 30 5 Noroeste 8 Noroeste 0 -- -- 35
2017-08-22 10:00:00 26.9 4 Nordeste 8 Norte 0 -- -- 46
2017-08-22 09:00:00 21.7 0 Calma 8 Oeste 0 -- -- 56
2017-08-22 08:00:00 18.1 5 Noroeste 9 Oeste 0 -- -- 64
2017-08-22 07:00:00 18.7 8 Sudoeste 10 Sur 0 -- -- 62
2017-08-22 06:00:00 18.9 8 Sur 9 Sur 0 -- -- 61
2017-08-22 05:00:00 20.8 0 Calma 12 Sudoeste 0 -- -- 52
2017-08-22 04:00:00 24.2 7 Sudoeste 22 Sur 0 -- -- 45
2017-08-22 03:00:00 23.8 14 Sudoeste 21 Sudoeste 0 -- -- 43
2017-08-22 02:00:00 20.6 9 Sudoeste 12 Sur 0 -- -- 49
2017-08-22 01:00:00 22.6 6 Norte 15 Oeste 0 -- -- 42
2017-08-22 00:00:00 26.2 8 Sur 18 Sur 0 -- -- 36